createdAt,value
2018-09-07T18:42:28.087Z,24.70
2018-09-07T18:44:55.779Z,17.10
2018-09-07T18:47:23.738Z,17.10
2018-09-07T18:49:51.684Z,17.20
2018-09-07T18:52:19.384Z,17.10
2018-09-07T18:54:47.552Z,17.10
2018-09-07T18:57:15.361Z,17.00
2018-09-07T18:59:43.175Z,16.80
2018-09-07T19:02:11.369Z,16.60
2018-09-07T19:04:39.980Z,16.60
2018-09-07T19:07:07.713Z,16.70
2018-09-07T19:09:35.838Z,16.40
2018-09-07T19:12:03.547Z,16.50
2018-09-07T19:14:31.248Z,16.60
2018-09-07T19:16:59.376Z,16.80
2018-09-07T19:19:27.149Z,16.80
2018-09-07T19:21:54.890Z,16.90
2018-09-07T19:24:22.976Z,17.00
2018-09-07T19:26:50.854Z,17.00
2018-09-07T19:29:18.783Z,16.90
2018-09-07T19:31:46.818Z,16.70
2018-09-07T19:34:15.493Z,16.70
2018-09-07T19:36:43.195Z,16.80
2018-09-07T19:39:11.208Z,16.90
2018-09-07T19:41:39.105Z,16.80
2018-09-07T19:44:06.812Z,16.80
2018-09-07T19:46:34.816Z,16.80
2018-09-07T19:49:03.095Z,16.80
2018-09-07T19:51:30.881Z,16.70
2018-09-07T19:53:58.847Z,16.70
2018-09-07T19:56:26.585Z,16.60
2018-09-07T19:58:54.313Z,16.70
2018-09-07T20:01:22.320Z,16.70
2018-09-07T20:03:50.149Z,16.60
2018-09-07T20:06:17.857Z,16.60
2018-09-07T20:08:45.824Z,16.50
2018-09-07T20:11:13.532Z,16.40
2018-09-07T20:13:41.201Z,16.30
2018-09-07T20:16:09.235Z,16.30
2018-09-07T20:18:36.912Z,16.50
2018-09-07T20:21:04.654Z,16.50
2018-09-07T20:23:32.599Z,16.50
2018-09-07T20:26:00.279Z,16.50
2018-09-07T20:28:27.968Z,16.50
2018-09-07T20:30:56.120Z,16.60
2018-09-07T20:33:23.841Z,16.50
2018-09-07T20:35:52.307Z,16.50
2018-09-07T20:38:20.501Z,16.40
2018-09-07T20:40:50.151Z,16.30
2018-09-07T20:43:18.274Z,16.40
2018-09-07T20:45:48.904Z,16.20
2018-09-07T20:48:16.633Z,16.10
2018-09-07T20:50:50.113Z,16.20
2018-09-07T20:53:19.628Z,16.10
2018-09-07T20:55:47.702Z,16.20
2018-09-07T20:58:15.922Z,16.40
2018-09-07T21:00:47.410Z,16.40
2018-09-07T21:03:18.081Z,16.50
2018-09-07T21:05:46.296Z,16.40
2018-09-07T21:08:14.351Z,16.40
2018-09-07T21:10:42.222Z,16.60
2018-09-07T21:13:09.929Z,16.60
2018-09-07T21:15:39.316Z,16.60
2018-09-07T21:18:06.981Z,16.40
2018-09-07T21:20:34.756Z,16.40
2018-09-07T21:23:02.735Z,16.60
2018-09-07T21:25:30.404Z,16.70
2018-09-07T21:27:58.061Z,16.70
2018-09-07T21:30:26.371Z,16.70
2018-09-07T21:32:54.216Z,16.80
2018-09-07T21:35:21.884Z,16.70
2018-09-07T21:37:49.560Z,16.70
2018-09-07T21:40:17.618Z,16.60
2018-09-07T21:42:45.282Z,16.40
2018-09-07T21:45:13.159Z,16.20
2018-09-07T21:47:40.822Z,16.00
2018-09-07T21:50:08.944Z,15.70
2018-09-07T21:52:36.616Z,15.70
2018-09-07T21:55:04.424Z,15.80
2018-09-07T21:57:32.444Z,15.90
2018-09-07T22:00:00.139Z,15.70
2018-09-07T22:02:28.673Z,15.70
2018-09-07T22:04:58.335Z,15.60
2018-09-07T22:07:31.403Z,15.50
2018-09-07T22:09:59.063Z,15.60
2018-09-07T22:12:26.716Z,15.80
2018-09-07T22:14:54.415Z,15.80
2018-09-07T22:17:23.145Z,15.60
2018-09-07T22:19:50.826Z,15.40
2018-09-07T22:22:18.708Z,15.30
2018-09-07T22:24:46.760Z,15.40
2018-09-07T22:27:14.868Z,15.60
2018-09-07T22:29:42.936Z,15.50
2018-09-07T22:32:11.040Z,15.50
2018-09-07T22:34:39.288Z,15.50
2018-09-07T22:37:07.178Z,15.70
2018-09-07T22:39:34.824Z,15.80
2018-09-07T22:42:02.509Z,15.60
2018-09-07T22:44:30.949Z,15.50
2018-09-07T22:46:58.630Z,15.60
2018-09-07T22:49:26.562Z,15.70
2018-09-07T22:51:54.369Z,15.80
2018-09-07T22:54:22.426Z,15.70
2018-09-07T22:56:50.088Z,15.80
2018-09-07T22:59:17.758Z,15.70
2018-09-07T23:01:45.463Z,15.70
2018-09-07T23:04:13.502Z,15.50
2018-09-07T23:06:46.640Z,15.40
2018-09-07T23:09:14.327Z,15.30
2018-09-07T23:11:41.995Z,15.30
2018-09-07T23:14:10.262Z,15.10
2018-09-07T23:16:37.907Z,15.00
2018-09-07T23:19:05.700Z,15.00
2018-09-07T23:21:33.407Z,14.90
2018-09-07T23:24:01.718Z,14.80
2018-09-07T23:26:29.423Z,14.70
2018-09-07T23:28:57.092Z,14.80
2018-09-07T23:31:24.760Z,15.00
2018-09-07T23:33:52.679Z,15.00
2018-09-07T23:36:20.335Z,15.10
2018-09-07T23:38:48.072Z,15.20
2018-09-07T23:41:15.740Z,15.10
2018-09-07T23:43:43.716Z,15.10
2018-09-07T23:46:11.401Z,15.00
2018-09-07T23:48:39.150Z,15.20
2018-09-07T23:51:06.799Z,15.30
2018-09-07T23:53:34.916Z,15.30
2018-09-07T23:56:02.607Z,15.20
2018-09-07T23:58:30.279Z,15.20
